sensor_id;sensor_type;location;lat;lon;timestamp;pressure;altitude;pressure_sealevel;temperature;humidity
75039;BME280;63609;49.992;14.512;2023-04-29T00:03:31;97594.25;;;8.97;68.90
75039;BME280;63609;49.992;14.512;2023-04-29T00:05:59;97589.66;;;9.25;68.21
75039;BME280;63609;49.992;14.512;2023-04-29T00:08:27;97590.97;;;9.20;67.76
75039;BME280;63609;49.992;14.512;2023-04-29T00:10:54;97587.47;;;9.72;66.53
75039;BME280;63609;49.992;14.512;2023-04-29T00:13:21;97590.66;;;9.75;66.20
75039;BME280;63609;49.992;14.512;2023-04-29T00:15:48;97593.16;;;9.77;65.89
75039;BME280;63609;49.992;14.512;2023-04-29T00:18:16;97602.38;;;9.82;65.92
75039;BME280;63609;49.992;14.512;2023-04-29T00:20:43;97595.56;;;9.88;65.80
75039;BME280;63609;49.992;14.512;2023-04-29T00:23:10;97601.47;;;9.74;66.10
75039;BME280;63609;49.992;14.512;2023-04-29T00:25:37;97604.97;;;9.74;65.85
75039;BME280;63609;49.992;14.512;2023-04-29T00:28:05;97602.25;;;9.40;67.37
75039;BME280;63609;49.992;14.512;2023-04-29T00:30:32;97608.38;;;9.59;66.84
75039;BME280;63609;49.992;14.512;2023-04-29T00:33:02;97612.78;;;9.94;65.85
75039;BME280;63609;49.992;14.512;2023-04-29T00:35:29;97609.41;;;9.92;65.93
75039;BME280;63609;49.992;14.512;2023-04-29T00:37:56;97604.81;;;9.94;65.70
75039;BME280;63609;49.992;14.512;2023-04-29T00:40:24;97611.09;;;10.19;64.90
75039;BME280;63609;49.992;14.512;2023-04-29T00:42:51;97608.00;;;10.39;64.31
75039;BME280;63609;49.992;14.512;2023-04-29T00:45:17;97602.16;;;10.44;63.82
75039;BME280;63609;49.992;14.512;2023-04-29T00:47:44;97606.13;;;10.24;64.55
75039;BME280;63609;49.992;14.512;2023-04-29T00:50:11;97609.97;;;9.95;65.02
75039;BME280;63609;49.992;14.512;2023-04-29T00:52:39;97607.19;;;10.05;65.45
75039;BME280;63609;49.992;14.512;2023-04-29T00:55:06;97604.09;;;9.66;66.68
75039;BME280;63609;49.992;14.512;2023-04-29T00:57:34;97600.19;;;9.52;67.51
75039;BME280;63609;49.992;14.512;2023-04-29T01:00:02;97603.25;;;9.91;66.21
75039;BME280;63609;49.992;14.512;2023-04-29T01:02:30;97599.81;;;9.73;66.61
75039;BME280;63609;49.992;14.512;2023-04-29T01:04:57;97609.06;;;9.61;67.22
75039;BME280;63609;49.992;14.512;2023-04-29T01:16:00;97600.81;;;9.98;65.73
75039;BME280;63609;49.992;14.512;2023-04-29T01:18:40;97593.16;;;9.77;66.17
75039;BME280;63609;49.992;14.512;2023-04-29T01:21:11;97594.53;;;9.81;67.12
75039;BME280;63609;49.992;14.512;2023-04-29T01:23:38;97598.63;;;9.93;66.49
75039;BME280;63609;49.992;14.512;2023-04-29T01:26:05;97601.31;;;9.75;66.64
75039;BME280;63609;49.992;14.512;2023-04-29T01:31:37;97596.91;;;9.58;67.42
75039;BME280;63609;49.992;14.512;2023-04-29T01:34:17;97587.22;;;9.83;66.83
75039;BME280;63609;49.992;14.512;2023-04-29T01:37:06;97587.00;;;10.02;65.68
75039;BME280;63609;49.992;14.512;2023-04-29T01:39:57;97585.56;;;9.82;66.39
75039;BME280;63609;49.992;14.512;2023-04-29T01:42:35;97592.28;;;9.68;67.30
75039;BME280;63609;49.992;14.512;2023-04-29T01:45:14;97603.00;;;9.50;67.79
75039;BME280;63609;49.992;14.512;2023-04-29T01:47:43;97598.59;;;9.41;68.78
75039;BME280;63609;49.992;14.512;2023-04-29T01:50:13;97603.72;;;9.35;69.43
75039;BME280;63609;49.992;14.512;2023-04-29T01:52:40;97602.53;;;9.55;69.44
75039;BME280;63609;49.992;14.512;2023-04-29T01:55:07;97603.34;;;9.12;71.72
75039;BME280;63609;49.992;14.512;2023-04-29T01:57:46;97599.59;;;9.66;69.85
75039;BME280;63609;49.992;14.512;2023-04-29T02:00:42;97598.56;;;9.85;68.73
75039;BME280;63609;49.992;14.512;2023-04-29T02:03:09;97601.13;;;9.95;68.50
75039;BME280;63609;49.992;14.512;2023-04-29T02:05:39;97593.59;;;10.16;67.81
75039;BME280;63609;49.992;14.512;2023-04-29T02:08:06;97590.97;;;10.32;67.08
75039;BME280;63609;49.992;14.512;2023-04-29T02:10:37;97589.41;;;10.13;67.43
75039;BME280;63609;49.992;14.512;2023-04-29T02:13:18;97586.00;;;10.03;67.59
75039;BME280;63609;49.992;14.512;2023-04-29T02:15:48;97595.84;;;10.03;67.67
75039;BME280;63609;49.992;14.512;2023-04-29T02:18:15;97589.00;;;10.00;67.35
75039;BME280;63609;49.992;14.512;2023-04-29T02:20:42;97588.41;;;10.15;66.50
75039;BME280;63609;49.992;14.512;2023-04-29T02:23:09;97586.28;;;10.26;66.55
75039;BME280;63609;49.992;14.512;2023-04-29T02:25:36;97586.44;;;10.25;66.35
75039;BME280;63609;49.992;14.512;2023-04-29T02:28:03;97585.94;;;10.29;66.51
75039;BME280;63609;49.992;14.512;2023-04-29T02:30:30;97579.94;;;10.27;66.50
75039;BME280;63609;49.992;14.512;2023-04-29T02:32:57;97577.13;;;10.29;65.94
75039;BME280;63609;49.992;14.512;2023-04-29T02:35:24;97584.50;;;10.01;66.77
75039;BME280;63609;49.992;14.512;2023-04-29T02:37:53;97575.88;;;9.81;67.49
75039;BME280;63609;49.992;14.512;2023-04-29T02:40:20;97577.34;;;10.09;66.22
75039;BME280;63609;49.992;14.512;2023-04-29T02:42:47;97575.59;;;10.18;65.98
75039;BME280;63609;49.992;14.512;2023-04-29T02:45:14;97570.56;;;9.81;67.53
75039;BME280;63609;49.992;14.512;2023-04-29T02:47:41;97571.22;;;9.83;67.86
75039;BME280;63609;49.992;14.512;2023-04-29T02:50:08;97574.50;;;9.77;67.85
75039;BME280;63609;49.992;14.512;2023-04-29T02:52:35;97572.78;;;9.68;68.56
75039;BME280;63609;49.992;14.512;2023-04-29T02:55:02;97582.25;;;9.88;67.76
75039;BME280;63609;49.992;14.512;2023-04-29T02:57:29;97588.47;;;9.97;67.93
75039;BME280;63609;49.992;14.512;2023-04-29T02:59:58;97598.59;;;10.19;66.77
75039;BME280;63609;49.992;14.512;2023-04-29T03:02:25;97592.06;;;10.13;67.32
75039;BME280;63609;49.992;14.512;2023-04-29T03:04:56;97595.13;;;10.35;66.64
75039;BME280;63609;49.992;14.512;2023-04-29T03:07:23;97593.78;;;10.81;64.61
75039;BME280;63609;49.992;14.512;2023-04-29T03:09:51;97597.25;;;10.73;65.16
75039;BME280;63609;49.992;14.512;2023-04-29T03:12:19;97591.22;;;10.55;65.51
75039;BME280;63609;49.992;14.512;2023-04-29T03:14:46;97584.00;;;11.14;63.66
75039;BME280;63609;49.992;14.512;2023-04-29T03:17:13;97588.78;;;11.02;63.67
75039;BME280;63609;49.992;14.512;2023-04-29T03:19:41;97585.16;;;11.12;62.96
75039;BME280;63609;49.992;14.512;2023-04-29T03:22:08;97591.66;;;11.33;62.50
75039;BME280;63609;49.992;14.512;2023-04-29T03:24:40;97586.16;;;11.51;61.60
75039;BME280;63609;49.992;14.512;2023-04-29T03:27:08;97592.44;;;11.83;60.12
75039;BME280;63609;49.992;14.512;2023-04-29T03:29:36;97577.22;;;11.83;60.28
75039;BME280;63609;49.992;14.512;2023-04-29T03:32:04;97585.09;;;11.85;60.44
75039;BME280;63609;49.992;14.512;2023-04-29T03:34:31;97584.66;;;11.32;62.38
75039;BME280;63609;49.992;14.512;2023-04-29T03:37:25;97583.06;;;10.65;64.22
75039;BME280;63609;49.992;14.512;2023-04-29T03:40:01;97573.59;;;10.95;63.55
75039;BME280;63609;49.992;14.512;2023-04-29T03:42:28;97566.41;;;11.03;62.67
75039;BME280;63609;49.992;14.512;2023-04-29T03:44:55;97569.63;;;11.15;62.70
75039;BME280;63609;49.992;14.512;2023-04-29T03:47:22;97574.81;;;11.25;62.42
75039;BME280;63609;49.992;14.512;2023-04-29T03:49:49;97580.13;;;11.49;61.54
75039;BME280;63609;49.992;14.512;2023-04-29T03:52:17;97580.41;;;11.71;61.16
75039;BME280;63609;49.992;14.512;2023-04-29T03:54:47;97586.81;;;11.53;61.78
75039;BME280;63609;49.992;14.512;2023-04-29T03:57:15;97581.44;;;11.04;63.60
75039;BME280;63609;49.992;14.512;2023-04-29T03:59:42;97576.59;;;10.84;64.13
75039;BME280;63609;49.992;14.512;2023-04-29T04:02:11;97575.44;;;10.86;64.29
75039;BME280;63609;49.992;14.512;2023-04-29T04:04:38;97578.22;;;10.68;64.73
75039;BME280;63609;49.992;14.512;2023-04-29T04:07:07;97570.41;;;10.91;64.62
75039;BME280;63609;49.992;14.512;2023-04-29T04:09:54;97578.63;;;11.38;62.75
75039;BME280;63609;49.992;14.512;2023-04-29T04:12:21;97577.97;;;11.28;63.19
75039;BME280;63609;49.992;14.512;2023-04-29T04:14:48;97580.25;;;11.72;61.97
75039;BME280;63609;49.992;14.512;2023-04-29T04:17:15;97589.78;;;11.66;62.26
75039;BME280;63609;49.992;14.512;2023-04-29T04:19:44;97586.31;;;11.50;63.20
75039;BME280;63609;49.992;14.512;2023-04-29T04:22:11;97581.81;;;11.50;63.11
75039;BME280;63609;49.992;14.512;2023-04-29T04:24:45;97584.13;;;11.37;63.04
75039;BME280;63609;49.992;14.512;2023-04-29T04:27:12;97589.28;;;11.79;61.70
75039;BME280;63609;49.992;14.512;2023-04-29T04:29:44;97585.72;;;11.95;61.38
75039;BME280;63609;49.992;14.512;2023-04-29T04:32:20;97589.00;;;12.05;60.62
75039;BME280;63609;49.992;14.512;2023-04-29T04:34:49;97592.88;;;12.03;60.57
75039;BME280;63609;49.992;14.512;2023-04-29T04:37:16;97590.75;;;11.90;61.85
75039;BME280;63609;49.992;14.512;2023-04-29T04:39:48;97595.25;;;11.89;61.78
75039;BME280;63609;49.992;14.512;2023-04-29T04:42:17;97592.72;;;11.96;62.32
75039;BME280;63609;49.992;14.512;2023-04-29T04:44:45;97589.38;;;12.02;61.42
75039;BME280;63609;49.992;14.512;2023-04-29T04:47:24;97589.88;;;11.97;61.39
75039;BME280;63609;49.992;14.512;2023-04-29T04:49:59;97591.59;;;11.90;61.97
75039;BME280;63609;49.992;14.512;2023-04-29T04:52:27;97582.09;;;11.72;62.72
75039;BME280;63609;49.992;14.512;2023-04-29T04:55:25;97582.47;;;11.28;64.10
75039;BME280;63609;49.992;14.512;2023-04-29T04:57:52;97585.78;;;11.05;65.54
75039;BME280;63609;49.992;14.512;2023-04-29T05:00:19;97584.28;;;11.03;65.47
75039;BME280;63609;49.992;14.512;2023-04-29T05:02:46;97587.56;;;10.72;66.95
75039;BME280;63609;49.992;14.512;2023-04-29T05:05:15;97576.09;;;10.96;66.13
75039;BME280;63609;49.992;14.512;2023-04-29T05:07:42;97581.78;;;11.01;66.08
75039;BME280;63609;49.992;14.512;2023-04-29T05:10:10;97585.66;;;11.15;66.12
75039;BME280;63609;49.992;14.512;2023-04-29T05:12:46;97578.81;;;11.21;65.47
75039;BME280;63609;49.992;14.512;2023-04-29T05:15:14;97576.47;;;11.26;65.45
75039;BME280;63609;49.992;14.512;2023-04-29T05:17:43;97585.09;;;11.03;66.22
75039;BME280;63609;49.992;14.512;2023-04-29T05:20:11;97583.63;;;11.09;66.06
75039;BME280;63609;49.992;14.512;2023-04-29T05:22:38;97586.09;;;11.02;66.77
75039;BME280;63609;49.992;14.512;2023-04-29T05:25:06;97586.09;;;10.94;66.47
75039;BME280;63609;49.992;14.512;2023-04-29T05:27:34;97588.34;;;11.15;66.03
75039;BME280;63609;49.992;14.512;2023-04-29T05:30:05;97589.47;;;11.37;65.66
75039;BME280;63609;49.992;14.512;2023-04-29T05:32:37;97590.16;;;11.31;65.30
75039;BME280;63609;49.992;14.512;2023-04-29T05:35:06;97588.66;;;11.28;66.87
75039;BME280;63609;49.992;14.512;2023-04-29T05:37:34;97596.81;;;11.59;66.12
75039;BME280;63609;49.992;14.512;2023-04-29T05:40:10;97588.81;;;11.43;66.43
75039;BME280;63609;49.992;14.512;2023-04-29T05:42:38;97602.31;;;10.93;68.21
75039;BME280;63609;49.992;14.512;2023-04-29T05:45:05;97608.06;;;10.64;69.97
75039;BME280;63609;49.992;14.512;2023-04-29T05:47:32;97597.63;;;11.03;68.61
75039;BME280;63609;49.992;14.512;2023-04-29T05:50:00;97595.34;;;11.49;66.67
75039;BME280;63609;49.992;14.512;2023-04-29T05:52:34;97598.69;;;11.26;67.63
75039;BME280;63609;49.992;14.512;2023-04-29T05:55:02;97598.66;;;11.43;67.67
75039;BME280;63609;49.992;14.512;2023-04-29T05:57:32;97605.13;;;11.07;68.22
75039;BME280;63609;49.992;14.512;2023-04-29T05:59:59;97596.19;;;11.17;68.00
75039;BME280;63609;49.992;14.512;2023-04-29T06:02:27;97601.19;;;11.36;67.37
75039;BME280;63609;49.992;14.512;2023-04-29T06:04:54;97602.69;;;11.55;67.50
75039;BME280;63609;49.992;14.512;2023-04-29T06:07:35;97613.00;;;11.74;66.98
75039;BME280;63609;49.992;14.512;2023-04-29T06:10:11;97608.81;;;11.72;67.01
75039;BME280;63609;49.992;14.512;2023-04-29T06:12:41;97608.72;;;11.49;66.83
75039;BME280;63609;49.992;14.512;2023-04-29T06:15:08;97608.78;;;11.96;65.73
75039;BME280;63609;49.992;14.512;2023-04-29T06:17:36;97614.44;;;12.01;65.99
75039;BME280;63609;49.992;14.512;2023-04-29T06:20:04;97609.19;;;11.77;66.60
75039;BME280;63609;49.992;14.512;2023-04-29T06:22:31;97615.28;;;12.57;65.78
75039;BME280;63609;49.992;14.512;2023-04-29T06:24:59;97609.03;;;12.34;64.44
75039;BME280;63609;49.992;14.512;2023-04-29T06:27:56;97621.53;;;11.86;66.83
75039;BME280;63609;49.992;14.512;2023-04-29T06:30:26;97620.28;;;12.05;66.33
75039;BME280;63609;49.992;14.512;2023-04-29T06:32:53;97622.69;;;11.83;67.49
75039;BME280;63609;49.992;14.512;2023-04-29T06:35:21;97610.50;;;12.44;67.28
75039;BME280;63609;49.992;14.512;2023-04-29T06:38:23;97614.75;;;12.61;64.95
75039;BME280;63609;49.992;14.512;2023-04-29T06:41:15;97610.06;;;12.24;66.06
75039;BME280;63609;49.992;14.512;2023-04-29T06:44:02;97604.78;;;12.47;65.21
75039;BME280;63609;49.992;14.512;2023-04-29T06:46:44;97613.31;;;12.82;64.85
75039;BME280;63609;49.992;14.512;2023-04-29T06:49:30;97617.66;;;12.83;64.20
75039;BME280;63609;49.992;14.512;2023-04-29T06:51:58;97606.88;;;12.91;64.18
75039;BME280;63609;49.992;14.512;2023-04-29T06:54:25;97615.41;;;12.64;64.64
75039;BME280;63609;49.992;14.512;2023-04-29T06:56:54;97616.59;;;12.61;64.54
75039;BME280;63609;49.992;14.512;2023-04-29T06:59:21;97615.84;;;12.44;65.49
75039;BME280;63609;49.992;14.512;2023-04-29T07:01:49;97609.00;;;12.42;64.89
75039;BME280;63609;49.992;14.512;2023-04-29T07:04:18;97606.47;;;12.79;64.25
75039;BME280;63609;49.992;14.512;2023-04-29T07:06:46;97606.50;;;12.71;64.91
75039;BME280;63609;49.992;14.512;2023-04-29T07:09:14;97592.44;;;13.23;64.47
75039;BME280;63609;49.992;14.512;2023-04-29T07:11:41;97597.69;;;13.39;63.59
75039;BME280;63609;49.992;14.512;2023-04-29T07:14:08;97595.94;;;13.84;62.09
75039;BME280;63609;49.992;14.512;2023-04-29T07:16:35;97599.94;;;13.65;63.25
75039;BME280;63609;49.992;14.512;2023-04-29T07:19:02;97597.56;;;13.33;62.42
75039;BME280;63609;49.992;14.512;2023-04-29T07:21:29;97587.59;;;13.94;62.67
75039;BME280;63609;49.992;14.512;2023-04-29T07:23:57;97584.53;;;13.82;61.54
75039;BME280;63609;49.992;14.512;2023-04-29T07:26:28;97583.81;;;13.73;61.00
75039;BME280;63609;49.992;14.512;2023-04-29T07:28:55;97590.50;;;13.54;61.32
75039;BME280;63609;49.992;14.512;2023-04-29T07:31:25;97588.22;;;13.29;61.95
75039;BME280;63609;49.992;14.512;2023-04-29T07:33:54;97583.41;;;13.62;62.54
75039;BME280;63609;49.992;14.512;2023-04-29T07:36:23;97601.69;;;13.58;61.85
75039;BME280;63609;49.992;14.512;2023-04-29T07:38:50;97604.03;;;13.61;60.87
75039;BME280;63609;49.992;14.512;2023-04-29T07:41:17;97615.28;;;14.09;60.45
75039;BME280;63609;49.992;14.512;2023-04-29T07:43:44;97618.16;;;13.55;60.88
75039;BME280;63609;49.992;14.512;2023-04-29T07:46:11;97610.59;;;13.59;60.15
75039;BME280;63609;49.992;14.512;2023-04-29T07:48:39;97620.09;;;13.23;60.53
75039;BME280;63609;49.992;14.512;2023-04-29T07:51:11;97622.69;;;13.54;60.92
75039;BME280;63609;49.992;14.512;2023-04-29T07:53:41;97621.50;;;13.34;59.14
75039;BME280;63609;49.992;14.512;2023-04-29T07:56:08;97619.47;;;14.11;58.85
75039;BME280;63609;49.992;14.512;2023-04-29T07:58:36;97612.50;;;14.61;56.08
75039;BME280;63609;49.992;14.512;2023-04-29T08:01:09;97613.25;;;14.70;56.77
75039;BME280;63609;49.992;14.512;2023-04-29T08:03:39;97610.28;;;14.35;55.91
75039;BME280;63609;49.992;14.512;2023-04-29T08:06:08;97617.59;;;13.45;58.36
75039;BME280;63609;49.992;14.512;2023-04-29T08:08:35;97619.00;;;13.33;58.08
75039;BME280;63609;49.992;14.512;2023-04-29T08:11:02;97620.94;;;12.93;58.28
75039;BME280;63609;49.992;14.512;2023-04-29T08:13:29;97625.09;;;13.49;58.62
75039;BME280;63609;49.992;14.512;2023-04-29T08:15:56;97626.88;;;13.34;61.66
75039;BME280;63609;49.992;14.512;2023-04-29T08:18:23;97622.53;;;13.33;57.62
75039;BME280;63609;49.992;14.512;2023-04-29T08:20:51;97629.44;;;13.50;56.00
75039;BME280;63609;49.992;14.512;2023-04-29T08:23:18;97627.78;;;13.64;54.64
75039;BME280;63609;49.992;14.512;2023-04-29T08:25:45;97623.84;;;14.12;55.21
75039;BME280;63609;49.992;14.512;2023-04-29T08:28:12;97624.09;;;14.47;55.40
75039;BME280;63609;49.992;14.512;2023-04-29T08:30:39;97618.09;;;14.45;55.40
75039;BME280;63609;49.992;14.512;2023-04-29T08:33:08;97620.84;;;14.52;54.56
75039;BME280;63609;49.992;14.512;2023-04-29T08:35:34;97628.63;;;15.55;53.86
75039;BME280;63609;49.992;14.512;2023-04-29T08:38:05;97616.66;;;15.15;51.73
75039;BME280;63609;49.992;14.512;2023-04-29T08:40:41;97621.78;;;14.44;53.07
75039;BME280;63609;49.992;14.512;2023-04-29T08:43:15;97627.78;;;14.97;52.41
75039;BME280;63609;49.992;14.512;2023-04-29T08:45:42;97621.56;;;15.75;51.34
75039;BME280;63609;49.992;14.512;2023-04-29T08:48:10;97630.34;;;15.20;49.52
75039;BME280;63609;49.992;14.512;2023-04-29T08:50:39;97627.59;;;14.77;48.92
75039;BME280;63609;49.992;14.512;2023-04-29T08:53:11;97628.31;;;15.43;48.89
75039;BME280;63609;49.992;14.512;2023-04-29T08:55:46;97620.47;;;15.69;49.01
75039;BME280;63609;49.992;14.512;2023-04-29T08:58:14;97620.31;;;16.34;45.65
75039;BME280;63609;49.992;14.512;2023-04-29T09:00:43;97626.34;;;17.58;45.53
75039;BME280;63609;49.992;14.512;2023-04-29T09:03:17;97633.22;;;17.93;44.76
75039;BME280;63609;49.992;14.512;2023-04-29T09:05:48;97640.66;;;16.08;47.56
75039;BME280;63609;49.992;14.512;2023-04-29T09:08:20;97635.44;;;16.69;44.86
75039;BME280;63609;49.992;14.512;2023-04-29T09:10:48;97630.53;;;16.10;45.50
75039;BME280;63609;49.992;14.512;2023-04-29T09:13:30;97627.94;;;16.65;45.79
75039;BME280;63609;49.992;14.512;2023-04-29T09:15:58;97633.38;;;15.81;48.45
75039;BME280;63609;49.992;14.512;2023-04-29T09:23:38;97638.09;;;14.93;50.87
75039;BME280;63609;49.992;14.512;2023-04-29T09:26:05;97628.09;;;14.51;51.37
75039;BME280;63609;49.992;14.512;2023-04-29T09:28:32;97657.22;;;14.84;51.90
75039;BME280;63609;49.992;14.512;2023-04-29T09:31:03;97668.16;;;14.82;50.74
75039;BME280;63609;49.992;14.512;2023-04-29T09:33:48;97663.31;;;16.20;49.50
75039;BME280;63609;49.992;14.512;2023-04-29T09:39:10;97671.22;;;14.35;56.93
75039;BME280;63609;49.992;14.512;2023-04-29T09:41:56;97685.22;;;14.74;56.65
75039;BME280;63609;49.992;14.512;2023-04-29T09:44:27;97678.63;;;15.06;54.66
75039;BME280;63609;49.992;14.512;2023-04-29T09:46:59;97696.97;;;14.88;55.69
75039;BME280;63609;49.992;14.512;2023-04-29T09:49:39;97689.09;;;15.37;54.33
75039;BME280;63609;49.992;14.512;2023-04-29T09:52:14;97685.56;;;15.80;53.81
75039;BME280;63609;49.992;14.512;2023-04-29T09:54:46;97692.28;;;15.48;55.00
75039;BME280;63609;49.992;14.512;2023-04-29T09:57:13;97693.38;;;15.75;53.86
75039;BME280;63609;49.992;14.512;2023-04-29T09:59:41;97686.84;;;15.62;55.01
75039;BME280;63609;49.992;14.512;2023-04-29T10:02:17;97690.66;;;15.68;54.21
75039;BME280;63609;49.992;14.512;2023-04-29T10:04:46;97685.66;;;16.42;52.26
75039;BME280;63609;49.992;14.512;2023-04-29T10:07:15;97682.34;;;16.47;52.07
75039;BME280;63609;49.992;14.512;2023-04-29T10:09:46;97685.38;;;17.00;52.06
75039;BME280;63609;49.992;14.512;2023-04-29T10:12:16;97683.50;;;17.07;51.93
75039;BME280;63609;49.992;14.512;2023-04-29T10:15:02;97684.00;;;17.30;50.95
75039;BME280;63609;49.992;14.512;2023-04-29T10:20:13;97674.28;;;17.42;49.70
75039;BME280;63609;49.992;14.512;2023-04-29T10:22:47;97682.88;;;17.66;50.30
75039;BME280;63609;49.992;14.512;2023-04-29T10:25:17;97692.78;;;16.56;52.49
75039;BME280;63609;49.992;14.512;2023-04-29T10:27:45;97697.84;;;16.73;52.27
75039;BME280;63609;49.992;14.512;2023-04-29T10:30:18;97702.41;;;15.88;55.18
75039;BME280;63609;49.992;14.512;2023-04-29T10:32:49;97702.19;;;13.70;61.12
75039;BME280;63609;49.992;14.512;2023-04-29T10:35:20;97714.72;;;12.93;65.06
75039;BME280;63609;49.992;14.512;2023-04-29T10:37:50;97702.84;;;12.48;63.60
75039;BME280;63609;49.992;14.512;2023-04-29T10:40:21;97699.56;;;12.14;64.08
75039;BME280;63609;49.992;14.512;2023-04-29T10:42:54;97700.22;;;12.08;65.37
75039;BME280;63609;49.992;14.512;2023-04-29T10:45:29;97705.59;;;12.24;65.11
75039;BME280;63609;49.992;14.512;2023-04-29T10:50:39;97721.44;;;12.42;64.37
75039;BME280;63609;49.992;14.512;2023-04-29T10:53:08;97711.19;;;12.53;64.98
75039;BME280;63609;49.992;14.512;2023-04-29T10:55:36;97713.53;;;13.80;61.61
75039;BME280;63609;49.992;14.512;2023-04-29T10:58:04;97711.69;;;12.57;64.40
75039;BME280;63609;49.992;14.512;2023-04-29T11:00:33;97704.56;;;13.65;62.91
75039;BME280;63609;49.992;14.512;2023-04-29T11:03:05;97702.94;;;14.69;59.70
75039;BME280;63609;49.992;14.512;2023-04-29T11:05:34;97712.75;;;13.72;62.99
75039;BME280;63609;49.992;14.512;2023-04-29T11:08:14;97705.69;;;14.46;60.59
75039;BME280;63609;49.992;14.512;2023-04-29T11:10:52;97707.13;;;14.04;60.58
75039;BME280;63609;49.992;14.512;2023-04-29T11:13:25;97721.44;;;14.49;59.57
75039;BME280;63609;49.992;14.512;2023-04-29T11:16:07;97710.97;;;14.02;59.78
75039;BME280;63609;49.992;14.512;2023-04-29T11:19:02;97712.56;;;14.49;58.67
75039;BME280;63609;49.992;14.512;2023-04-29T11:21:23;97715.50;;;15.13;57.77
75039;BME280;63609;49.992;14.512;2023-04-29T11:23:50;97716.66;;;15.25;55.99
75039;BME280;63609;49.992;14.512;2023-04-29T11:26:18;97727.84;;;15.64;56.28
75039;BME280;63609;49.992;14.512;2023-04-29T11:28:46;97719.09;;;15.77;56.40
75039;BME280;63609;49.992;14.512;2023-04-29T11:31:13;97723.31;;;15.86;54.40
75039;BME280;63609;49.992;14.512;2023-04-29T11:33:41;97721.53;;;15.15;56.06
75039;BME280;63609;49.992;14.512;2023-04-29T11:36:10;97720.72;;;14.40;55.79
75039;BME280;63609;49.992;14.512;2023-04-29T11:38:40;97731.81;;;14.82;55.07
75039;BME280;63609;49.992;14.512;2023-04-29T11:41:10;97731.28;;;13.81;56.38
75039;BME280;63609;49.992;14.512;2023-04-29T11:43:37;97731.91;;;14.44;54.66
75039;BME280;63609;49.992;14.512;2023-04-29T11:46:12;97732.66;;;14.38;55.73
75039;BME280;63609;49.992;14.512;2023-04-29T11:48:46;97737.41;;;14.13;56.10
75039;BME280;63609;49.992;14.512;2023-04-29T11:51:15;97739.31;;;14.04;57.06
75039;BME280;63609;49.992;14.512;2023-04-29T11:53:43;97737.63;;;14.26;58.40
75039;BME280;63609;49.992;14.512;2023-04-29T11:56:11;97742.44;;;14.31;55.30
75039;BME280;63609;49.992;14.512;2023-04-29T11:58:38;97746.28;;;15.10;56.52
75039;BME280;63609;49.992;14.512;2023-04-29T12:01:05;97741.78;;;15.68;54.60
75039;BME280;63609;49.992;14.512;2023-04-29T12:03:32;97749.59;;;15.84;53.24
75039;BME280;63609;49.992;14.512;2023-04-29T12:06:01;97735.72;;;16.02;54.33
75039;BME280;63609;49.992;14.512;2023-04-29T12:08:29;97736.00;;;15.14;54.23
75039;BME280;63609;49.992;14.512;2023-04-29T12:10:58;97737.09;;;15.19;51.81
75039;BME280;63609;49.992;14.512;2023-04-29T12:13:28;97736.00;;;15.71;50.69
75039;BME280;63609;49.992;14.512;2023-04-29T12:15:56;97735.72;;;15.45;50.42
75039;BME280;63609;49.992;14.512;2023-04-29T12:18:24;97733.41;;;16.55;49.13
75039;BME280;63609;49.992;14.512;2023-04-29T12:20:53;97738.91;;;17.09;47.35
75039;BME280;63609;49.992;14.512;2023-04-29T12:23:24;97739.81;;;16.82;49.36
75039;BME280;63609;49.992;14.512;2023-04-29T12:25:59;97731.53;;;15.99;50.81
75039;BME280;63609;49.992;14.512;2023-04-29T12:28:26;97735.97;;;16.35;49.80
75039;BME280;63609;49.992;14.512;2023-04-29T12:30:54;97733.56;;;15.97;51.02
75039;BME280;63609;49.992;14.512;2023-04-29T12:33:24;97732.91;;;17.07;48.18
75039;BME280;63609;49.992;14.512;2023-04-29T12:35:57;97732.78;;;16.87;48.13
75039;BME280;63609;49.992;14.512;2023-04-29T12:38:29;97740.69;;;16.61;48.86
75039;BME280;63609;49.992;14.512;2023-04-29T12:40:59;97739.78;;;15.98;51.42
75039;BME280;63609;49.992;14.512;2023-04-29T12:43:28;97742.75;;;15.10;53.71
75039;BME280;63609;49.992;14.512;2023-04-29T12:48:33;97744.97;;;14.47;55.13
75039;BME280;63609;49.992;14.512;2023-04-29T12:51:00;97751.56;;;14.89;54.16
75039;BME280;63609;49.992;14.512;2023-04-29T12:53:29;97743.88;;;14.86;53.45
75039;BME280;63609;49.992;14.512;2023-04-29T12:55:57;97750.41;;;14.01;55.79
75039;BME280;63609;49.992;14.512;2023-04-29T12:58:27;97754.19;;;14.30;55.05
75039;BME280;63609;49.992;14.512;2023-04-29T13:00:55;97750.19;;;15.07;53.97
75039;BME280;63609;49.992;14.512;2023-04-29T13:03:23;97736.81;;;14.85;54.45
75039;BME280;63609;49.992;14.512;2023-04-29T13:05:51;97741.00;;;13.82;58.46
75039;BME280;63609;49.992;14.512;2023-04-29T13:08:21;97743.78;;;13.89;61.27
75039;BME280;63609;49.992;14.512;2023-04-29T13:10:48;97756.19;;;13.90;60.95
75039;BME280;63609;49.992;14.512;2023-04-29T13:13:16;97772.84;;;13.32;62.59
75039;BME280;63609;49.992;14.512;2023-04-29T13:15:43;97774.91;;;13.52;63.72
75039;BME280;63609;49.992;14.512;2023-04-29T13:18:11;97775.81;;;12.34;66.65
75039;BME280;63609;49.992;14.512;2023-04-29T13:20:38;97773.81;;;12.28;68.02
75039;BME280;63609;49.992;14.512;2023-04-29T13:23:11;97774.69;;;12.20;65.81
75039;BME280;63609;49.992;14.512;2023-04-29T13:25:38;97772.63;;;12.39;67.09
75039;BME280;63609;49.992;14.512;2023-04-29T13:28:05;97770.31;;;11.87;66.53
75039;BME280;63609;49.992;14.512;2023-04-29T13:30:33;97763.81;;;12.22;67.05
75039;BME280;63609;49.992;14.512;2023-04-29T13:33:00;97773.47;;;12.31;67.13
75039;BME280;63609;49.992;14.512;2023-04-29T13:35:38;97768.63;;;12.10;65.38